createdAt,value
2018-05-27T00:00:25.901Z,0.00
2018-05-27T00:01:25.893Z,0.00
2018-05-27T00:02:25.890Z,0.00
2018-05-27T00:03:25.877Z,0.00
2018-05-27T00:04:25.874Z,0.00
2018-05-27T00:05:25.865Z,0.00
2018-05-27T00:06:25.865Z,0.00
2018-05-27T00:07:25.850Z,0.00
2018-05-27T00:08:25.838Z,0.00
2018-05-27T00:09:25.845Z,0.00
2018-05-27T00:10:25.824Z,0.00
2018-05-27T00:11:25.818Z,0.00
2018-05-27T00:12:25.811Z,0.00
2018-05-27T00:13:25.799Z,0.00
2018-05-27T00:14:25.796Z,0.00
2018-05-27T00:15:25.801Z,0.00
2018-05-27T00:16:25.783Z,0.00
2018-05-27T00:17:25.771Z,0.00
2018-05-27T00:18:25.763Z,0.00
2018-05-27T00:19:25.757Z,0.00
2018-05-27T00:20:25.749Z,0.00
2018-05-27T00:21:25.738Z,0.00
2018-05-27T00:22:25.732Z,0.00
2018-05-27T00:23:25.724Z,0.00
2018-05-27T00:24:25.717Z,0.00
2018-05-27T00:25:25.711Z,0.00
2018-05-27T00:26:25.702Z,0.00
2018-05-27T00:27:25.693Z,0.00
2018-05-27T00:28:25.685Z,0.00
2018-05-27T00:29:25.676Z,0.00
2018-05-27T00:30:25.667Z,0.00
2018-05-27T00:31:25.661Z,0.00
2018-05-27T00:32:25.653Z,0.00
2018-05-27T00:33:25.646Z,0.00
2018-05-27T00:34:25.638Z,0.00
2018-05-27T00:35:25.628Z,0.00
2018-05-27T00:36:25.623Z,0.00
2018-05-27T00:37:25.614Z,0.00
2018-05-27T00:38:25.608Z,0.00
2018-05-27T00:39:25.597Z,0.00
2018-05-27T00:40:25.593Z,0.00
2018-05-27T00:41:25.585Z,0.00
2018-05-27T00:42:25.581Z,0.00
2018-05-27T00:43:25.568Z,0.00
2018-05-27T00:44:25.595Z,0.00
2018-05-27T00:45:25.549Z,0.00
2018-05-27T00:46:25.538Z,0.00
2018-05-27T00:47:25.536Z,0.00
2018-05-27T00:48:25.527Z,0.00
2018-05-27T00:49:25.517Z,0.00
2018-05-27T00:50:25.511Z,0.00
2018-05-27T00:51:25.509Z,0.00
2018-05-27T00:52:25.498Z,0.00
2018-05-27T00:53:25.489Z,0.00
2018-05-27T00:54:25.482Z,0.00
2018-05-27T00:55:25.472Z,0.00
2018-05-27T00:56:25.464Z,0.00
2018-05-27T00:57:25.456Z,0.00
2018-05-27T00:58:25.447Z,0.00
2018-05-27T00:59:25.451Z,0.00
2018-05-27T01:00:25.434Z,0.00
2018-05-27T01:01:25.421Z,0.00
2018-05-27T01:02:25.421Z,0.00
2018-05-27T01:03:25.408Z,0.00
2018-05-27T01:04:25.398Z,0.00
2018-05-27T01:05:25.393Z,0.00
2018-05-27T01:06:25.384Z,0.00
2018-05-27T01:07:25.379Z,0.00
2018-05-27T01:08:25.372Z,0.00
2018-05-27T01:09:25.359Z,0.00
2018-05-27T01:10:25.356Z,0.00
2018-05-27T01:11:25.339Z,0.00
2018-05-27T01:12:25.339Z,0.00
2018-05-27T01:13:25.332Z,0.00
2018-05-27T01:14:25.412Z,0.00
2018-05-27T01:15:25.310Z,0.00
2018-05-27T01:16:25.297Z,0.00
2018-05-27T01:17:25.296Z,0.00
2018-05-27T01:18:25.283Z,0.00
2018-05-27T01:19:25.279Z,0.00
2018-05-27T01:20:25.271Z,0.00
2018-05-27T01:21:25.263Z,0.00
2018-05-27T01:22:25.255Z,0.00
2018-05-27T01:23:25.244Z,0.00
2018-05-27T01:24:25.240Z,0.00
2018-05-27T01:25:25.229Z,0.00
2018-05-27T01:26:25.220Z,0.00
2018-05-27T01:27:25.212Z,0.00
2018-05-27T01:28:25.210Z,0.00
2018-05-27T01:29:25.195Z,0.00
2018-05-27T01:30:25.192Z,0.00
2018-05-27T01:31:25.182Z,0.00
2018-05-27T01:32:25.169Z,0.00
2018-05-27T01:33:25.163Z,0.00
2018-05-27T01:34:25.153Z,0.00
2018-05-27T01:35:25.149Z,0.00
2018-05-27T01:36:25.138Z,0.00
2018-05-27T01:37:25.122Z,0.00
2018-05-27T01:38:25.122Z,0.00
2018-05-27T01:39:25.114Z,0.00
2018-05-27T01:40:25.106Z,0.00
2018-05-27T01:41:25.095Z,0.00
2018-05-27T01:42:25.087Z,0.00
2018-05-27T01:43:25.079Z,0.00
2018-05-27T01:44:25.067Z,0.00
2018-05-27T01:45:25.064Z,0.00
2018-05-27T01:46:25.049Z,0.00
2018-05-27T01:47:25.044Z,0.00
2018-05-27T01:48:25.041Z,0.00
2018-05-27T01:49:25.029Z,0.00
2018-05-27T01:50:25.034Z,0.00
2018-05-27T01:51:25.012Z,0.00
2018-05-27T01:52:25.003Z,0.00
2018-05-27T01:53:24.991Z,0.00
2018-05-27T01:54:24.987Z,0.00
2018-05-27T01:55:24.975Z,0.00
2018-05-27T01:56:24.966Z,0.00
2018-05-27T01:57:24.958Z,0.00
2018-05-27T01:58:24.949Z,0.00
2018-05-27T01:59:24.944Z,0.00
2018-05-27T02:00:24.932Z,0.00
2018-05-27T02:01:24.922Z,0.00
2018-05-27T02:02:24.915Z,0.00
2018-05-27T02:03:24.908Z,0.00
2018-05-27T02:04:24.901Z,0.00
2018-05-27T02:05:24.889Z,0.00
2018-05-27T02:06:24.882Z,0.00
2018-05-27T02:07:24.875Z,0.00
2018-05-27T02:08:24.864Z,0.00
2018-05-27T02:09:24.859Z,0.00
2018-05-27T02:10:24.850Z,0.00
2018-05-27T02:11:24.838Z,0.00
2018-05-27T02:12:24.829Z,0.00
2018-05-27T02:13:24.826Z,0.00
2018-05-27T02:14:24.811Z,0.00
2018-05-27T02:15:24.803Z,0.00
2018-05-27T02:16:24.803Z,0.00
2018-05-27T02:17:24.788Z,0.00
2018-05-27T02:18:24.782Z,0.00
2018-05-27T02:19:24.778Z,0.00
2018-05-27T02:20:24.762Z,0.00
2018-05-27T02:21:24.752Z,0.00
2018-05-27T02:22:24.746Z,0.00
2018-05-27T02:23:24.737Z,0.00
2018-05-27T02:24:24.728Z,0.00
2018-05-27T02:25:24.722Z,0.00
2018-05-27T02:26:24.710Z,0.00
2018-05-27T02:27:24.700Z,0.00
2018-05-27T02:28:24.694Z,0.00
2018-05-27T02:29:24.690Z,0.00
2018-05-27T02:30:24.677Z,0.00
2018-05-27T02:31:24.675Z,0.00
2018-05-27T02:32:24.667Z,0.00
2018-05-27T02:33:24.647Z,0.00
2018-05-27T02:34:24.640Z,0.00
2018-05-27T02:35:24.635Z,0.00
2018-05-27T02:36:24.627Z,0.00
2018-05-27T02:37:24.614Z,0.00
2018-05-27T02:38:24.611Z,0.00
2018-05-27T02:39:24.653Z,0.00
2018-05-27T02:40:24.597Z,0.00
2018-05-27T02:41:24.582Z,0.00
2018-05-27T02:42:24.590Z,0.00
2018-05-27T02:43:24.565Z,0.00
2018-05-27T02:44:24.553Z,0.00
2018-05-27T02:45:24.563Z,0.00
2018-05-27T02:46:24.539Z,0.00
2018-05-27T02:47:24.539Z,0.00
2018-05-27T02:48:24.523Z,0.00
2018-05-27T02:49:24.525Z,0.00
2018-05-27T02:50:24.501Z,0.00
2018-05-27T02:51:24.491Z,0.00
2018-05-27T02:52:24.490Z,0.00
2018-05-27T02:53:24.476Z,0.00
2018-05-27T02:54:24.465Z,0.00
2018-05-27T02:55:24.499Z,0.00
2018-05-27T02:56:24.450Z,0.00
2018-05-27T02:57:24.445Z,0.00
2018-05-27T02:58:24.436Z,0.00
2018-05-27T02:59:24.431Z,0.00
2018-05-27T03:00:24.460Z,0.00
2018-05-27T03:01:24.411Z,0.00
2018-05-27T03:02:24.399Z,0.00
2018-05-27T03:03:24.417Z,0.00
2018-05-27T03:04:24.383Z,0.00
2018-05-27T03:05:24.373Z,0.00
2018-05-27T03:06:24.359Z,0.00
2018-05-27T03:07:24.357Z,0.00
2018-05-27T03:08:24.350Z,0.00
2018-05-27T03:09:24.343Z,0.00
2018-05-27T03:10:24.333Z,0.00
2018-05-27T03:11:24.322Z,0.00
2018-05-27T03:12:24.314Z,0.00
2018-05-27T03:13:24.301Z,0.00
2018-05-27T03:14:24.297Z,0.00
2018-05-27T03:15:24.285Z,0.00
2018-05-27T03:16:24.279Z,0.00
2018-05-27T03:17:24.266Z,0.00
2018-05-27T03:18:24.260Z,0.00
2018-05-27T03:19:24.250Z,0.00
2018-05-27T03:20:24.240Z,0.00
2018-05-27T03:21:24.231Z,0.00
2018-05-27T03:22:24.221Z,0.00
2018-05-27T03:23:24.216Z,0.00
2018-05-27T03:24:24.207Z,0.00
2018-05-27T03:25:24.199Z,0.00
2018-05-27T03:26:24.199Z,0.00
2018-05-27T03:27:24.181Z,0.00
2018-05-27T03:28:24.173Z,0.00
2018-05-27T03:29:24.165Z,0.00
2018-05-27T03:30:24.151Z,0.00
2018-05-27T03:31:24.147Z,0.00
2018-05-27T03:32:24.136Z,0.00
2018-05-27T03:33:24.128Z,0.00
2018-05-27T03:34:24.124Z,0.00
2018-05-27T03:35:24.112Z,0.00
2018-05-27T03:36:24.102Z,0.00
2018-05-27T03:37:24.096Z,0.00
2018-05-27T03:38:24.085Z,0.00
2018-05-27T03:39:24.072Z,0.00
2018-05-27T03:40:24.071Z,0.00
2018-05-27T03:41:24.059Z,0.00
2018-05-27T03:42:24.048Z,0.00
2018-05-27T03:43:24.042Z,0.00
2018-05-27T03:44:24.032Z,0.00
2018-05-27T03:45:24.022Z,0.00
2018-05-27T03:46:24.012Z,0.00
2018-05-27T03:47:24.008Z,0.00
2018-05-27T03:48:23.999Z,0.00
2018-05-27T03:49:23.989Z,0.00
2018-05-27T03:50:23.978Z,0.00
2018-05-27T03:51:23.970Z,0.00
2018-05-27T03:52:23.964Z,0.00
2018-05-27T03:53:23.949Z,0.00
2018-05-27T03:54:23.941Z,0.00
2018-05-27T03:55:23.935Z,0.00
2018-05-27T03:56:23.924Z,0.00
2018-05-27T03:57:23.916Z,0.00
2018-05-27T03:58:23.909Z,0.00
2018-05-27T03:59:23.906Z,0.00
2018-05-27T04:00:23.890Z,0.00
2018-05-27T04:01:23.880Z,0.00
2018-05-27T04:02:23.871Z,0.00
2018-05-27T04:03:23.862Z,0.00
2018-05-27T04:04:23.851Z,0.00
2018-05-27T04:05:23.849Z,0.00
2018-05-27T04:06:23.841Z,0.00
2018-05-27T04:07:23.825Z,0.00
2018-05-27T04:08:23.818Z,0.00
2018-05-27T04:09:23.812Z,0.00
2018-05-27T04:10:23.796Z,0.00
2018-05-27T04:11:23.790Z,0.00
2018-05-27T04:12:23.784Z,0.00
2018-05-27T04:13:23.771Z,0.00
2018-05-27T04:14:23.767Z,0.00
2018-05-27T04:15:23.755Z,0.00
2018-05-27T04:16:23.744Z,0.00
2018-05-27T04:17:23.738Z,0.00
2018-05-27T04:18:23.728Z,0.00
2018-05-27T04:19:23.716Z,0.00
2018-05-27T04:20:23.715Z,0.00
2018-05-27T04:21:23.705Z,0.00
2018-05-27T04:22:23.691Z,0.00
2018-05-27T04:23:23.683Z,0.00
2018-05-27T04:24:23.679Z,0.00
2018-05-27T04:25:23.671Z,0.00
2018-05-27T04:26:23.657Z,0.00
2018-05-27T04:27:23.652Z,0.00
2018-05-27T04:28:23.648Z,0.00
2018-05-27T04:29:23.630Z,0.00
2018-05-27T04:30:23.622Z,5.63
2018-05-27T04:31:23.616Z,5.63
2018-05-27T04:32:23.608Z,5.63
2018-05-27T04:33:23.598Z,5.63
2018-05-27T04:34:23.591Z,5.63
2018-05-27T04:35:23.579Z,5.63
2018-05-27T04:36:23.571Z,5.63
2018-05-27T04:37:23.563Z,5.63
2018-05-27T04:38:23.557Z,5.63
2018-05-27T04:39:23.549Z,5.63
2018-05-27T04:40:23.535Z,5.63
2018-05-27T04:41:23.525Z,5.63
2018-05-27T04:42:23.519Z,5.63
2018-05-27T04:43:23.507Z,5.63
2018-05-27T04:44:23.496Z,5.63
2018-05-27T04:45:23.492Z,5.63
2018-05-27T04:46:23.482Z,5.63
2018-05-27T04:47:23.468Z,5.63
2018-05-27T04:48:23.466Z,5.63
2018-05-27T04:49:23.449Z,5.63
2018-05-27T04:50:23.448Z,5.63
2018-05-27T04:51:23.437Z,5.63
2018-05-27T04:52:23.444Z,5.63
2018-05-27T04:53:23.461Z,5.63
2018-05-27T04:54:23.433Z,5.63
2018-05-27T04:55:23.400Z,5.63
2018-05-27T04:56:23.397Z,5.63
2018-05-27T04:57:23.386Z,5.63
2018-05-27T04:58:23.378Z,5.63
2018-05-27T04:59:23.369Z,5.63
2018-05-27T05:00:23.356Z,5.63
2018-05-27T05:01:23.355Z,5.63
2018-05-27T05:02:23.338Z,5.63
2018-05-27T05:03:23.332Z,5.63
2018-05-27T05:04:23.321Z,5.63
2018-05-27T05:05:23.316Z,5.63
2018-05-27T05:06:23.311Z,5.63
2018-05-27T05:07:23.299Z,5.63
2018-05-27T05:08:23.299Z,5.63
2018-05-27T05:09:23.285Z,5.63
2018-05-27T05:10:23.273Z,11.25
2018-05-27T05:11:23.264Z,11.25
2018-05-27T05:12:23.254Z,11.25
2018-05-27T05:13:23.245Z,11.25
2018-05-27T05:14:23.286Z,11.25
2018-05-27T05:15:23.223Z,11.25
2018-05-27T05:16:23.219Z,11.25
2018-05-27T05:17:23.207Z,11.25
2018-05-27T05:18:23.200Z,11.25
2018-05-27T05:19:23.191Z,11.25
2018-05-27T05:20:23.187Z,11.25
2018-05-27T05:21:23.174Z,11.25
2018-05-27T05:22:23.163Z,11.25
2018-05-27T05:23:23.157Z,11.25
2018-05-27T05:24:23.206Z,11.25
2018-05-27T05:25:23.143Z,11.25
2018-05-27T05:26:23.131Z,11.25
2018-05-27T05:27:23.121Z,11.25
2018-05-27T05:28:23.116Z,11.25
2018-05-27T05:29:23.102Z,11.25
2018-05-27T05:30:23.094Z,11.25
2018-05-27T05:31:23.084Z,11.25
2018-05-27T05:32:23.080Z,11.25
2018-05-27T05:33:23.073Z,11.25
2018-05-27T05:34:23.062Z,11.25
2018-05-27T05:35:23.050Z,11.25
2018-05-27T05:36:23.065Z,11.25
2018-05-27T05:37:23.039Z,11.25
2018-05-27T05:38:23.031Z,11.25
2018-05-27T05:39:23.023Z,11.25
2018-05-27T05:40:23.003Z,11.25
2018-05-27T05:41:22.999Z,11.25
2018-05-27T05:42:22.993Z,11.25
2018-05-27T05:43:22.981Z,11.25
2018-05-27T05:44:22.976Z,11.25
2018-05-27T05:45:22.960Z,11.25
2018-05-27T05:46:22.954Z,11.25
2018-05-27T05:47:22.944Z,11.25
2018-05-27T05:48:22.941Z,11.25
2018-05-27T05:49:22.969Z,11.25
2018-05-27T05:50:22.919Z,11.25
2018-05-27T05:51:22.915Z,16.88
2018-05-27T05:52:22.897Z,16.88
2018-05-27T05:53:22.891Z,16.88
2018-05-27T05:54:22.885Z,16.88
2018-05-27T05:55:22.870Z,16.88
2018-05-27T05:56:22.861Z,16.88
2018-05-27T05:57:22.856Z,16.88
2018-05-27T05:58:22.843Z,16.88
2018-05-27T05:59:22.837Z,16.88
2018-05-27T06:00:22.832Z,16.88
2018-05-27T06:01:22.814Z,16.88
2018-05-27T06:02:22.815Z,16.88
2018-05-27T06:03:22.802Z,16.88
2018-05-27T06:04:22.795Z,22.50
2018-05-27T06:05:22.783Z,16.88
2018-05-27T06:06:22.775Z,16.88
2018-05-27T06:07:22.765Z,16.88
2018-05-27T06:08:22.763Z,16.88
2018-05-27T06:09:22.756Z,16.88
2018-05-27T06:10:22.743Z,16.88
2018-05-27T06:11:22.735Z,16.88
2018-05-27T06:12:22.724Z,16.88
2018-05-27T06:13:22.713Z,16.88
2018-05-27T06:14:22.704Z,16.88
2018-05-27T06:15:22.703Z,22.50
2018-05-27T06:16:22.689Z,22.50
2018-05-27T06:17:22.676Z,28.13
2018-05-27T06:18:22.672Z,22.50
2018-05-27T06:19:22.666Z,22.50
2018-05-27T06:20:22.657Z,22.50
2018-05-27T06:21:22.648Z,22.50
2018-05-27T06:22:22.637Z,45.00
2018-05-27T06:23:22.628Z,28.13
2018-05-27T06:24:22.620Z,33.75
2018-05-27T06:25:22.613Z,39.38
2018-05-27T06:26:22.602Z,39.38
2018-05-27T06:27:22.592Z,33.75
2018-05-27T06:28:22.588Z,28.13
2018-05-27T06:29:22.575Z,33.75
2018-05-27T06:30:22.569Z,28.13
2018-05-27T06:31:22.557Z,33.75
2018-05-27T06:32:22.558Z,28.13
2018-05-27T06:33:22.543Z,28.13
2018-05-27T06:34:22.538Z,28.13
2018-05-27T06:35:22.530Z,28.13
2018-05-27T06:36:22.519Z,28.13
2018-05-27T06:37:22.516Z,28.13
2018-05-27T06:38:22.498Z,28.13
2018-05-27T06:39:22.491Z,28.13
2018-05-27T06:40:22.491Z,33.75
2018-05-27T06:41:22.478Z,33.75
2018-05-27T06:42:22.470Z,33.75
2018-05-27T06:43:22.464Z,28.13
2018-05-27T06:44:22.453Z,33.75
2018-05-27T06:45:22.439Z,56.25
2018-05-27T06:46:22.436Z,61.88
2018-05-27T06:47:22.435Z,56.25
2018-05-27T06:48:22.418Z,50.63
2018-05-27T06:49:22.415Z,50.63
2018-05-27T06:50:22.397Z,50.63
2018-05-27T06:51:22.395Z,33.75
2018-05-27T06:52:22.384Z,33.75
2018-05-27T06:53:22.378Z,33.75
2018-05-27T06:54:22.369Z,50.63
2018-05-27T06:55:22.364Z,33.75
2018-05-27T06:56:22.361Z,28.13
2018-05-27T06:57:22.348Z,28.13
2018-05-27T06:58:22.342Z,28.13
2018-05-27T06:59:22.326Z,33.75
2018-05-27T07:00:22.325Z,33.75
2018-05-27T07:01:22.313Z,28.13
2018-05-27T07:02:22.305Z,33.75
2018-05-27T07:03:22.301Z,33.75
2018-05-27T07:04:22.312Z,45.00
2018-05-27T07:05:22.290Z,56.25
2018-05-27T07:06:22.275Z,73.13
2018-05-27T07:07:22.271Z,73.13
2018-05-27T07:08:22.263Z,78.75
2018-05-27T07:09:22.248Z,50.63
2018-05-27T07:10:22.243Z,50.63
2018-05-27T07:11:22.240Z,78.75
2018-05-27T07:12:22.232Z,78.75
2018-05-27T07:13:22.221Z,73.13
2018-05-27T07:14:22.216Z,45.00
2018-05-27T07:15:22.206Z,33.75
2018-05-27T07:16:22.199Z,61.88
2018-05-27T07:17:22.192Z,78.75
2018-05-27T07:18:22.187Z,84.38
2018-05-27T07:19:22.175Z,84.38
2018-05-27T07:20:22.165Z,45.00
2018-05-27T07:21:22.159Z,61.88
2018-05-27T07:22:22.151Z,73.13
2018-05-27T07:23:22.145Z,84.38
2018-05-27T07:24:22.138Z,50.63
2018-05-27T07:25:22.128Z,39.38
2018-05-27T07:26:22.122Z,45.00
2018-05-27T07:27:22.114Z,50.63
2018-05-27T07:28:22.106Z,84.38
2018-05-27T07:29:22.102Z,78.75
2018-05-27T07:30:22.101Z,56.25
2018-05-27T07:31:22.087Z,33.75
2018-05-27T07:32:22.080Z,33.75
2018-05-27T07:33:22.073Z,33.75
2018-05-27T07:34:22.060Z,61.88
2018-05-27T07:35:22.060Z,45.00
2018-05-27T07:36:22.052Z,50.63
2018-05-27T07:37:22.036Z,33.75
2018-05-27T07:38:22.037Z,61.88
2018-05-27T07:39:22.022Z,45.00
2018-05-27T07:40:22.020Z,45.00
2018-05-27T07:41:22.008Z,45.00
2018-05-27T07:42:22.004Z,61.88
2018-05-27T07:43:21.994Z,61.88
2018-05-27T07:44:21.992Z,56.25
2018-05-27T07:45:21.976Z,33.75
2018-05-27T07:46:21.972Z,39.38
2018-05-27T07:47:21.962Z,33.75
2018-05-27T07:48:21.965Z,33.75
2018-05-27T07:49:21.949Z,33.75
2018-05-27T07:50:21.943Z,33.75
2018-05-27T07:51:21.933Z,33.75
2018-05-27T07:52:21.929Z,61.88
2018-05-27T07:53:21.921Z,61.88
2018-05-27T07:54:21.909Z,61.88
2018-05-27T07:55:21.909Z,45.00
2018-05-27T07:56:21.896Z,73.13
2018-05-27T07:57:21.886Z,95.63
2018-05-27T07:58:21.942Z,61.88
2018-05-27T07:59:21.870Z,61.88
2018-05-27T08:00:21.862Z,50.63
2018-05-27T08:01:21.858Z,50.63
2018-05-27T08:02:21.850Z,56.25
2018-05-27T08:03:21.843Z,78.75
2018-05-27T08:04:21.838Z,78.75
2018-05-27T08:05:21.830Z,45.00
2018-05-27T08:06:21.824Z,45.00
2018-05-27T08:07:21.814Z,45.00
2018-05-27T08:08:21.810Z,39.38
2018-05-27T08:09:21.803Z,39.38
2018-05-27T08:10:21.793Z,39.38
2018-05-27T08:11:21.787Z,39.38
2018-05-27T08:12:21.777Z,39.38
2018-05-27T08:13:21.771Z,39.38
2018-05-27T08:14:21.766Z,39.38
2018-05-27T08:15:21.758Z,45.00
2018-05-27T08:16:21.754Z,45.00
2018-05-27T08:17:21.745Z,56.25
2018-05-27T08:18:21.733Z,67.50
2018-05-27T08:19:21.730Z,39.38
2018-05-27T08:20:21.723Z,39.38
2018-05-27T08:21:21.709Z,39.38
2018-05-27T08:22:21.704Z,39.38
2018-05-27T08:23:21.698Z,39.38
2018-05-27T08:24:21.692Z,50.63
2018-05-27T08:25:21.681Z,45.00
2018-05-27T08:26:21.671Z,50.63
2018-05-27T08:27:21.669Z,45.00
2018-05-27T08:28:21.660Z,50.63
2018-05-27T08:29:21.650Z,56.25
2018-05-27T08:30:21.653Z,61.88
2018-05-27T08:31:21.642Z,73.13
2018-05-27T08:32:21.636Z,112.50
2018-05-27T08:33:21.624Z,90.00
2018-05-27T08:34:21.618Z,90.00
2018-05-27T08:35:21.612Z,78.75
2018-05-27T08:36:21.605Z,73.13
2018-05-27T08:37:21.601Z,95.63
2018-05-27T08:38:21.585Z,73.13
2018-05-27T08:39:21.586Z,67.50
2018-05-27T08:40:21.579Z,56.25
2018-05-27T08:41:21.567Z,61.88
2018-05-27T08:42:21.561Z,56.25
2018-05-27T08:43:21.576Z,56.25
2018-05-27T08:44:21.546Z,90.00
2018-05-27T08:45:21.544Z,67.50
2018-05-27T08:46:21.538Z,101.25
2018-05-27T08:47:21.524Z,106.88
2018-05-27T08:48:21.540Z,61.88
2018-05-27T08:49:21.515Z,67.50
2018-05-27T08:50:21.514Z,56.25
2018-05-27T08:51:21.499Z,56.25
2018-05-27T08:52:21.497Z,67.50
2018-05-27T08:53:21.529Z,78.75
2018-05-27T08:54:21.483Z,84.38
2018-05-27T08:55:21.474Z,50.63
2018-05-27T08:56:21.479Z,56.25
2018-05-27T08:57:21.480Z,61.88
2018-05-27T08:58:21.453Z,78.75
2018-05-27T08:59:21.446Z,118.13
2018-05-27T09:00:21.439Z,129.38
2018-05-27T09:01:21.556Z,123.75
2018-05-27T09:02:21.425Z,67.50
2018-05-27T09:03:21.423Z,56.25
2018-05-27T09:04:21.412Z,56.25
2018-05-27T09:05:21.407Z,95.63
2018-05-27T09:06:21.400Z,106.88
2018-05-27T09:07:21.403Z,67.50
2018-05-27T09:08:21.392Z,135.00
2018-05-27T09:09:21.383Z,123.75
2018-05-27T09:10:21.374Z,56.25
2018-05-27T09:11:21.367Z,61.88
2018-05-27T09:12:21.361Z,90.00
2018-05-27T09:13:21.351Z,67.50
2018-05-27T09:14:21.347Z,67.50
2018-05-27T09:15:21.370Z,67.50
2018-05-27T09:16:21.336Z,61.88
2018-05-27T09:17:21.329Z,61.88
2018-05-27T09:18:21.333Z,61.88
2018-05-27T09:19:21.322Z,61.88
2018-05-27T09:20:21.314Z,61.88
2018-05-27T09:21:21.316Z,67.50
2018-05-27T09:22:21.309Z,61.88
2018-05-27T09:23:21.296Z,78.75
2018-05-27T09:24:21.288Z,78.75
2018-05-27T09:25:21.282Z,84.38
2018-05-27T09:26:21.276Z,78.75
2018-05-27T09:27:21.271Z,78.75
2018-05-27T09:28:21.267Z,101.25
2018-05-27T09:29:21.254Z,73.13
2018-05-27T09:30:21.253Z,67.50
2018-05-27T09:31:21.247Z,67.50
2018-05-27T09:32:21.241Z,67.50
2018-05-27T09:33:21.235Z,67.50
2018-05-27T09:34:21.225Z,67.50
2018-05-27T09:35:21.225Z,67.50
2018-05-27T09:36:21.217Z,67.50
2018-05-27T09:37:21.214Z,67.50
2018-05-27T09:38:21.202Z,67.50
2018-05-27T09:39:21.193Z,61.88
2018-05-27T09:40:21.194Z,67.50
2018-05-27T09:41:21.190Z,67.50
2018-05-27T09:42:21.178Z,95.63
2018-05-27T09:43:21.171Z,112.50
2018-05-27T09:44:21.172Z,95.63
2018-05-27T09:45:21.182Z,84.38
2018-05-27T09:46:21.158Z,112.50
2018-05-27T09:47:21.148Z,123.75
2018-05-27T09:48:21.148Z,90.00
2018-05-27T09:49:21.137Z,73.13
2018-05-27T09:50:21.133Z,73.13
2018-05-27T09:51:21.171Z,73.13
2018-05-27T09:52:21.119Z,73.13
2018-05-27T09:53:21.115Z,67.50
2018-05-27T09:54:21.109Z,67.50
2018-05-27T09:55:21.103Z,67.50
2018-05-27T09:56:21.097Z,67.50
2018-05-27T09:57:21.096Z,67.50
2018-05-27T09:58:21.086Z,67.50
2018-05-27T09:59:21.077Z,67.50
2018-05-27T10:00:21.067Z,67.50
2018-05-27T10:01:21.066Z,67.50
2018-05-27T10:02:21.060Z,73.13
2018-05-27T10:03:21.056Z,140.63
2018-05-27T10:04:21.044Z,140.63
2018-05-27T10:05:21.040Z,135.00
2018-05-27T10:06:21.035Z,140.63
2018-05-27T10:07:21.033Z,140.63
2018-05-27T10:08:21.033Z,135.00
2018-05-27T10:09:21.018Z,135.00
2018-05-27T10:10:21.013Z,135.00
2018-05-27T10:11:21.012Z,118.13
2018-05-27T10:12:21.004Z,135.00
2018-05-27T10:13:20.991Z,135.00
2018-05-27T10:14:20.993Z,118.13
2018-05-27T10:15:20.987Z,123.75
2018-05-27T10:16:20.977Z,129.38
2018-05-27T10:17:20.977Z,129.38
2018-05-27T10:18:20.968Z,123.75
2018-05-27T10:19:20.965Z,123.75
2018-05-27T10:20:20.959Z,118.13
2018-05-27T10:21:20.954Z,118.13
2018-05-27T10:22:20.953Z,118.13
2018-05-27T10:23:20.946Z,118.13
2018-05-27T10:24:20.938Z,118.13
2018-05-27T10:25:20.933Z,118.13
2018-05-27T10:26:20.923Z,118.13
2018-05-27T10:27:20.918Z,118.13
2018-05-27T10:28:20.918Z,118.13
2018-05-27T10:29:20.911Z,118.13
2018-05-27T10:30:20.916Z,118.13
2018-05-27T10:31:20.905Z,118.13
2018-05-27T10:32:20.901Z,118.13
2018-05-27T10:33:20.892Z,118.13
2018-05-27T10:34:20.888Z,118.13
2018-05-27T10:35:20.877Z,118.13
2018-05-27T10:36:20.881Z,112.50
2018-05-27T10:37:20.872Z,112.50
2018-05-27T10:38:20.869Z,112.50
2018-05-27T10:39:20.866Z,112.50
2018-05-27T10:40:20.861Z,118.13
2018-05-27T10:41:20.852Z,118.13
2018-05-27T10:42:20.848Z,118.13
2018-05-27T10:43:20.845Z,118.13
2018-05-27T10:44:20.842Z,118.13
2018-05-27T10:45:20.836Z,118.13
2018-05-27T10:46:20.830Z,118.13
2018-05-27T10:47:20.830Z,112.50
2018-05-27T10:48:20.821Z,118.13
2018-05-27T10:49:20.820Z,123.75
2018-05-27T10:50:20.814Z,123.75
2018-05-27T10:51:20.806Z,123.75
2018-05-27T10:52:20.809Z,123.75
2018-05-27T10:53:20.801Z,123.75
2018-05-27T10:54:20.797Z,123.75
2018-05-27T10:55:20.791Z,118.13
2018-05-27T10:56:20.789Z,118.13
2018-05-27T10:57:20.782Z,112.50
2018-05-27T10:58:20.779Z,112.50
2018-05-27T10:59:20.775Z,112.50
2018-05-27T11:00:20.768Z,118.13
2018-05-27T11:01:20.766Z,123.75
2018-05-27T11:02:20.760Z,123.75
2018-05-27T11:03:20.764Z,118.13
2018-05-27T11:04:20.753Z,123.75
2018-05-27T11:05:20.750Z,123.75
2018-05-27T11:06:20.743Z,123.75
2018-05-27T11:07:20.739Z,123.75
2018-05-27T11:08:20.733Z,123.75
2018-05-27T11:09:20.732Z,118.13
2018-05-27T11:10:20.730Z,123.75
2018-05-27T11:11:20.719Z,123.75
2018-05-27T11:12:20.721Z,123.75
2018-05-27T11:13:20.719Z,123.75
2018-05-27T11:14:20.707Z,123.75
2018-05-27T11:15:20.705Z,129.38
2018-05-27T11:16:20.700Z,129.38
2018-05-27T11:17:20.694Z,129.38
2018-05-27T11:18:20.692Z,129.38
2018-05-27T11:19:20.686Z,129.38
2018-05-27T11:20:20.684Z,129.38
2018-05-27T11:21:20.678Z,129.38
2018-05-27T11:22:20.674Z,129.38
2018-05-27T11:23:20.669Z,129.38
2018-05-27T11:24:20.665Z,129.38
2018-05-27T11:25:20.661Z,129.38
2018-05-27T11:26:20.655Z,129.38
2018-05-27T11:27:20.653Z,123.75
2018-05-27T11:28:20.652Z,106.88
2018-05-27T11:29:20.643Z,101.25
2018-05-27T11:30:20.639Z,106.88
2018-05-27T11:31:20.633Z,112.50
2018-05-27T11:32:20.634Z,118.13
2018-05-27T11:33:20.625Z,112.50
2018-05-27T11:34:20.624Z,112.50
2018-05-27T11:35:20.630Z,118.13
2018-05-27T11:36:20.616Z,118.13
2018-05-27T11:37:20.610Z,123.75
2018-05-27T11:38:20.606Z,112.50
2018-05-27T11:39:20.606Z,118.13
2018-05-27T11:40:20.597Z,112.50
2018-05-27T11:41:20.595Z,106.88
2018-05-27T11:42:20.595Z,118.13
2018-05-27T11:43:20.587Z,118.13
2018-05-27T11:44:20.583Z,129.38
2018-05-27T11:45:20.576Z,112.50
2018-05-27T11:46:20.583Z,112.50
2018-05-27T11:47:20.572Z,118.13
2018-05-27T11:48:20.566Z,95.63
2018-05-27T11:49:20.559Z,84.38
2018-05-27T11:50:20.561Z,73.13
2018-05-27T11:51:20.555Z,73.13
2018-05-27T11:52:20.555Z,78.75
2018-05-27T11:53:20.548Z,78.75
2018-05-27T11:54:20.544Z,101.25
2018-05-27T11:55:20.547Z,106.88
2018-05-27T11:56:20.541Z,95.63
2018-05-27T11:57:20.527Z,101.25
2018-05-27T11:58:20.524Z,95.63
2018-05-27T11:59:20.522Z,106.88
2018-05-27T12:00:20.522Z,106.88
2018-05-27T12:01:20.514Z,129.38
2018-05-27T12:02:20.512Z,140.63
2018-05-27T12:03:20.506Z,129.38
2018-05-27T12:04:20.497Z,123.75
2018-05-27T12:05:20.497Z,123.75
2018-05-27T12:06:20.495Z,135.00
2018-05-27T12:07:20.489Z,135.00
2018-05-27T12:08:20.485Z,140.63
2018-05-27T12:09:20.571Z,140.63
2018-05-27T12:10:20.475Z,140.63
2018-05-27T12:11:20.472Z,146.25
2018-05-27T12:12:20.470Z,151.88
2018-05-27T12:13:20.464Z,151.88
2018-05-27T12:14:20.467Z,151.88
2018-05-27T12:15:20.453Z,151.88
2018-05-27T12:16:20.455Z,151.88
2018-05-27T12:17:20.449Z,151.88
2018-05-27T12:18:20.444Z,151.88
2018-05-27T12:19:20.441Z,157.50
2018-05-27T12:20:20.438Z,151.88
2018-05-27T12:21:20.436Z,151.88
2018-05-27T12:22:20.430Z,151.88
2018-05-27T12:23:20.434Z,151.88
2018-05-27T12:24:20.424Z,157.50
2018-05-27T12:25:20.421Z,157.50
2018-05-27T12:26:20.412Z,157.50
2018-05-27T12:27:20.414Z,157.50
2018-05-27T12:28:20.411Z,157.50
2018-05-27T12:29:20.402Z,157.50
2018-05-27T12:30:20.403Z,157.50
2018-05-27T12:31:20.399Z,157.50
2018-05-27T12:32:20.397Z,157.50
2018-05-27T12:33:20.393Z,157.50
2018-05-27T12:34:20.384Z,163.13
2018-05-27T12:35:20.387Z,163.13
2018-05-27T12:36:20.384Z,163.13
2018-05-27T12:37:20.378Z,163.13
2018-05-27T12:38:20.378Z,163.13
2018-05-27T12:39:20.372Z,163.13
2018-05-27T12:40:20.375Z,163.13
2018-05-27T12:41:20.382Z,163.13
2018-05-27T12:42:20.362Z,163.13
2018-05-27T12:43:20.367Z,163.13
2018-05-27T12:44:20.353Z,146.25
2018-05-27T12:45:20.351Z,157.50
2018-05-27T12:46:20.362Z,157.50
2018-05-27T12:47:20.349Z,163.13
2018-05-27T12:48:20.348Z,163.13
2018-05-27T12:49:20.340Z,163.13
2018-05-27T12:50:20.340Z,163.13
2018-05-27T12:51:20.334Z,163.13
2018-05-27T12:52:20.333Z,163.13
2018-05-27T12:53:20.328Z,157.50
2018-05-27T12:54:20.327Z,163.13
2018-05-27T12:55:20.321Z,157.50
2018-05-27T12:56:20.319Z,163.13